sensor_id;sensor_type;location;lat;lon;timestamp;temperature;humidity
46331;DHT22;32049;52.346;4.870;2022-07-30T05:24:30;17.10;99.90
46331;DHT22;32049;52.346;4.870;2022-07-30T05:27:18;17.30;99.90
46331;DHT22;32049;52.346;4.870;2022-07-30T05:30:07;17.40;99.90
46331;DHT22;32049;52.346;4.870;2022-07-30T05:33:01;17.60;99.90
46331;DHT22;32049;52.346;4.870;2022-07-30T05:35:50;17.60;99.90
46331;DHT22;32049;52.346;4.870;2022-07-30T05:38:37;17.90;99.90
46331;DHT22;32049;52.346;4.870;2022-07-30T05:41:25;17.80;99.90
46331;DHT22;32049;52.346;4.870;2022-07-30T05:44:18;17.90;99.90
46331;DHT22;32049;52.346;4.870;2022-07-30T05:47:10;18.00;99.90
46331;DHT22;32049;52.346;4.870;2022-07-30T05:49:57;18.00;99.90
46331;DHT22;32049;52.346;4.870;2022-07-30T05:52:51;18.70;99.90
46331;DHT22;32049;52.346;4.870;2022-07-30T05:55:56;18.90;99.90
46331;DHT22;32049;52.346;4.870;2022-07-30T05:58:44;19.30;99.90
46331;DHT22;32049;52.346;4.870;2022-07-30T06:01:32;19.20;99.90
46331;DHT22;32049;52.346;4.870;2022-07-30T06:04:19;18.90;99.90
46331;DHT22;32049;52.346;4.870;2022-07-30T06:07:07;19.10;99.90
46331;DHT22;32049;52.346;4.870;2022-07-30T06:09:58;19.00;99.90
46331;DHT22;32049;52.346;4.870;2022-07-30T06:12:48;19.20;99.90
46331;DHT22;32049;52.346;4.870;2022-07-30T06:15:36;19.00;99.90
46331;DHT22;32049;52.346;4.870;2022-07-30T06:18:24;19.00;99.90
46331;DHT22;32049;52.346;4.870;2022-07-30T06:21:11;19.00;99.90
46331;DHT22;32049;52.346;4.870;2022-07-30T06:23:59;18.90;99.90
46331;DHT22;32049;52.346;4.870;2022-07-30T06:26:46;19.10;99.90
46331;DHT22;32049;52.346;4.870;2022-07-30T06:29:33;19.50;99.90
46331;DHT22;32049;52.346;4.870;2022-07-30T06:32:21;19.20;99.90
46331;DHT22;32049;52.346;4.870;2022-07-30T06:35:08;19.40;99.90
46331;DHT22;32049;52.346;4.870;2022-07-30T06:37:56;18.70;99.90
46331;DHT22;32049;52.346;4.870;2022-07-30T06:40:54;18.80;99.90
46331;DHT22;32049;52.346;4.870;2022-07-30T06:43:48;19.10;99.90
46331;DHT22;32049;52.346;4.870;2022-07-30T06:46:37;19.10;99.90
46331;DHT22;32049;52.346;4.870;2022-07-30T06:49:24;19.20;99.90
46331;DHT22;32049;52.346;4.870;2022-07-30T06:52:12;19.00;99.90
46331;DHT22;32049;52.346;4.870;2022-07-30T06:55:05;18.70;99.90
46331;DHT22;32049;52.346;4.870;2022-07-30T06:58:31;19.10;99.90
46331;DHT22;32049;52.346;4.870;2022-07-30T07:01:18;19.10;99.90
46331;DHT22;32049;52.346;4.870;2022-07-30T07:04:07;19.20;99.90
46331;DHT22;32049;52.346;4.870;2022-07-30T07:06:55;18.90;99.90
46331;DHT22;32049;52.346;4.870;2022-07-30T07:09:43;19.10;99.90
46331;DHT22;32049;52.346;4.870;2022-07-30T07:12:31;19.50;99.90
46331;DHT22;32049;52.346;4.870;2022-07-30T07:15:19;19.50;99.90
46331;DHT22;32049;52.346;4.870;2022-07-30T07:18:22;19.30;99.90
46331;DHT22;32049;52.346;4.870;2022-07-30T07:21:10;19.70;99.90
46331;DHT22;32049;52.346;4.870;2022-07-30T07:33:06;20.00;99.90
46331;DHT22;32049;52.346;4.870;2022-07-30T07:35:54;20.50;99.90
46331;DHT22;32049;52.346;4.870;2022-07-30T07:38:42;20.30;99.90
46331;DHT22;32049;52.346;4.870;2022-07-30T07:41:29;20.30;99.90
46331;DHT22;32049;52.346;4.870;2022-07-30T07:47:11;20.30;99.90
46331;DHT22;32049;52.346;4.870;2022-07-30T07:49:58;20.10;99.90
46331;DHT22;32049;52.346;4.870;2022-07-30T07:52:46;20.30;99.90
46331;DHT22;32049;52.346;4.870;2022-07-30T07:55:38;20.70;99.90
46331;DHT22;32049;52.346;4.870;2022-07-30T07:58:26;20.70;99.90
46331;DHT22;32049;52.346;4.870;2022-07-30T08:01:41;20.90;99.90
46331;DHT22;32049;52.346;4.870;2022-07-30T08:04:30;21.00;99.90
46331;DHT22;32049;52.346;4.870;2022-07-30T08:07:17;21.20;99.90
46331;DHT22;32049;52.346;4.870;2022-07-30T08:10:05;21.40;99.90
46331;DHT22;32049;52.346;4.870;2022-07-30T08:12:53;21.20;99.90
46331;DHT22;32049;52.346;4.870;2022-07-30T08:15:41;21.20;99.90
46331;DHT22;32049;52.346;4.870;2022-07-30T08:18:28;20.90;99.90
46331;DHT22;32049;52.346;4.870;2022-07-30T08:21:15;20.60;99.90
46331;DHT22;32049;52.346;4.870;2022-07-30T08:24:03;20.70;99.90
46331;DHT22;32049;52.346;4.870;2022-07-30T08:26:53;20.90;99.90
46331;DHT22;32049;52.346;4.870;2022-07-30T08:29:40;21.20;99.90
46331;DHT22;32049;52.346;4.870;2022-07-30T08:32:28;21.60;99.90
46331;DHT22;32049;52.346;4.870;2022-07-30T08:35:15;21.90;99.90
46331;DHT22;32049;52.346;4.870;2022-07-30T08:38:03;21.80;99.90
46331;DHT22;32049;52.346;4.870;2022-07-30T08:40:54;21.50;99.90
46331;DHT22;32049;52.346;4.870;2022-07-30T08:44:11;21.30;99.90
46331;DHT22;32049;52.346;4.870;2022-07-30T08:47:08;21.40;99.90
46331;DHT22;32049;52.346;4.870;2022-07-30T08:53:07;21.80;99.90
46331;DHT22;32049;52.346;4.870;2022-07-30T08:55:56;21.90;99.40
46331;DHT22;32049;52.346;4.870;2022-07-30T08:59:13;22.00;99.90
46331;DHT22;32049;52.346;4.870;2022-07-30T09:02:00;22.30;99.90
46331;DHT22;32049;52.346;4.870;2022-07-30T09:04:48;22.00;99.40
46331;DHT22;32049;52.346;4.870;2022-07-30T09:07:38;22.40;99.20
46331;DHT22;32049;52.346;4.870;2022-07-30T09:10:25;22.10;99.70
46331;DHT22;32049;52.346;4.870;2022-07-30T09:13:34;22.20;99.90
46331;DHT22;32049;52.346;4.870;2022-07-30T09:16:30;22.50;99.90
46331;DHT22;32049;52.346;4.870;2022-07-30T09:19:38;22.80;99.90
46331;DHT22;32049;52.346;4.870;2022-07-30T09:22:41;22.70;99.90
46331;DHT22;32049;52.346;4.870;2022-07-30T09:25:43;23.10;99.80
46331;DHT22;32049;52.346;4.870;2022-07-30T09:28:34;23.10;99.50
46331;DHT22;32049;52.346;4.870;2022-07-30T09:34:42;23.00;99.60
46331;DHT22;32049;52.346;4.870;2022-07-30T09:37:29;23.30;99.10
46331;DHT22;32049;52.346;4.870;2022-07-30T09:40:17;23.10;99.10
46331;DHT22;32049;52.346;4.870;2022-07-30T09:43:10;23.20;97.90
46331;DHT22;32049;52.346;4.870;2022-07-30T09:45:58;23.20;97.50
46331;DHT22;32049;52.346;4.870;2022-07-30T09:48:47;23.40;97.90
46331;DHT22;32049;52.346;4.870;2022-07-30T09:51:38;23.50;97.80
46331;DHT22;32049;52.346;4.870;2022-07-30T09:54:48;23.40;97.70
46331;DHT22;32049;52.346;4.870;2022-07-30T09:57:55;23.40;97.40
46331;DHT22;32049;52.346;4.870;2022-07-30T10:00:44;23.10;97.60
46331;DHT22;32049;52.346;4.870;2022-07-30T10:03:32;23.60;97.60
46331;DHT22;32049;52.346;4.870;2022-07-30T10:06:37;24.10;97.20
46331;DHT22;32049;52.346;4.870;2022-07-30T10:09:33;24.40;97.50
46331;DHT22;32049;52.346;4.870;2022-07-30T10:12:23;24.00;96.70
46331;DHT22;32049;52.346;4.870;2022-07-30T10:15:12;24.30;96.80
46331;DHT22;32049;52.346;4.870;2022-07-30T10:18:03;24.10;96.90
46331;DHT22;32049;52.346;4.870;2022-07-30T10:20:53;24.30;96.40
46331;DHT22;32049;52.346;4.870;2022-07-30T10:24:16;24.70;96.60
46331;DHT22;32049;52.346;4.870;2022-07-30T10:27:15;24.10;95.20
46331;DHT22;32049;52.346;4.870;2022-07-30T10:30:18;24.20;95.30
46331;DHT22;32049;52.346;4.870;2022-07-30T10:33:29;24.50;94.90
46331;DHT22;32049;52.346;4.870;2022-07-30T10:36:31;24.40;95.30
46331;DHT22;32049;52.346;4.870;2022-07-30T10:40:32;24.60;95.10
46331;DHT22;32049;52.346;4.870;2022-07-30T10:48:34;24.10;94.50
46331;DHT22;32049;52.346;4.870;2022-07-30T10:51:48;23.80;94.90
46331;DHT22;32049;52.346;4.870;2022-07-30T10:54:59;23.80;95.20
46331;DHT22;32049;52.346;4.870;2022-07-30T11:01:05;24.30;95.30
46331;DHT22;32049;52.346;4.870;2022-07-30T11:04:26;24.40;95.50
46331;DHT22;32049;52.346;4.870;2022-07-30T11:07:27;24.50;95.50
46331;DHT22;32049;52.346;4.870;2022-07-30T11:10:39;24.00;95.20
46331;DHT22;32049;52.346;4.870;2022-07-30T11:13:55;24.10;95.30
46331;DHT22;32049;52.346;4.870;2022-07-30T11:29:42;24.30;95.30
46331;DHT22;32049;52.346;4.870;2022-07-30T11:32:42;24.40;95.80
46331;DHT22;32049;52.346;4.870;2022-07-30T11:35:40;24.10;96.00
46331;DHT22;32049;52.346;4.870;2022-07-30T11:38:56;24.30;96.30
46331;DHT22;32049;52.346;4.870;2022-07-30T11:42:26;24.30;96.00
46331;DHT22;32049;52.346;4.870;2022-07-30T11:45:21;24.00;96.30
46331;DHT22;32049;52.346;4.870;2022-07-30T11:48:28;23.70;96.40
46331;DHT22;32049;52.346;4.870;2022-07-30T11:51:48;23.80;96.60
46331;DHT22;32049;52.346;4.870;2022-07-30T11:54:59;23.60;95.90
46331;DHT22;32049;52.346;4.870;2022-07-30T11:57:57;23.80;95.80
46331;DHT22;32049;52.346;4.870;2022-07-30T12:00:55;23.90;96.30
46331;DHT22;32049;52.346;4.870;2022-07-30T12:03:56;23.80;96.10
46331;DHT22;32049;52.346;4.870;2022-07-30T12:06:47;23.50;97.10
46331;DHT22;32049;52.346;4.870;2022-07-30T12:09:41;23.30;97.30
46331;DHT22;32049;52.346;4.870;2022-07-30T12:12:34;23.20;97.60
46331;DHT22;32049;52.346;4.870;2022-07-30T12:15:33;23.20;97.90
46331;DHT22;32049;52.346;4.870;2022-07-30T12:18:35;23.10;97.90
46331;DHT22;32049;52.346;4.870;2022-07-30T14:01:46;23.50;98.80
46331;DHT22;32049;52.346;4.870;2022-07-30T14:04:36;23.40;98.00
46331;DHT22;32049;52.346;4.870;2022-07-30T14:07:27;23.40;98.10
46331;DHT22;32049;52.346;4.870;2022-07-30T14:10:27;23.20;98.10
46331;DHT22;32049;52.346;4.870;2022-07-30T14:13:33;23.30;98.00
46331;DHT22;32049;52.346;4.870;2022-07-30T14:16:27;23.40;97.70
46331;DHT22;32049;52.346;4.870;2022-07-30T14:19:40;23.10;97.30
46331;DHT22;32049;52.346;4.870;2022-07-30T14:22:35;23.10;97.60
46331;DHT22;32049;52.346;4.870;2022-07-30T14:25:25;23.10;97.70
46331;DHT22;32049;52.346;4.870;2022-07-30T14:28:20;23.00;97.50
46331;DHT22;32049;52.346;4.870;2022-07-30T14:31:16;23.10;97.70
46331;DHT22;32049;52.346;4.870;2022-07-30T14:34:13;23.20;97.70
46331;DHT22;32049;52.346;4.870;2022-07-30T14:37:21;23.20;97.50
46331;DHT22;32049;52.346;4.870;2022-07-30T14:40:27;23.50;97.50
46331;DHT22;32049;52.346;4.870;2022-07-30T14:43:39;23.40;97.10
46331;DHT22;32049;52.346;4.870;2022-07-30T14:46:52;23.40;97.40
46331;DHT22;32049;52.346;4.870;2022-07-30T14:49:53;23.60;97.90
46331;DHT22;32049;52.346;4.870;2022-07-30T14:53:04;23.50;97.50
46331;DHT22;32049;52.346;4.870;2022-07-30T14:56:25;23.30;97.30
46331;DHT22;32049;52.346;4.870;2022-07-30T14:59:18;23.60;97.50
46331;DHT22;32049;52.346;4.870;2022-07-30T15:02:53;23.80;97.30
46331;DHT22;32049;52.346;4.870;2022-07-30T15:10:05;24.10;96.50
46331;DHT22;32049;52.346;4.870;2022-07-30T15:13:16;24.20;96.80
46331;DHT22;32049;52.346;4.870;2022-07-30T15:16:19;24.00;97.10
46331;DHT22;32049;52.346;4.870;2022-07-30T15:19:14;23.70;97.60
46331;DHT22;32049;52.346;4.870;2022-07-30T15:22:19;23.60;97.30
46331;DHT22;32049;52.346;4.870;2022-07-30T15:25:13;23.60;97.10
46331;DHT22;32049;52.346;4.870;2022-07-30T15:28:08;23.80;97.60
46331;DHT22;32049;52.346;4.870;2022-07-30T15:31:11;23.60;97.10
46331;DHT22;32049;52.346;4.870;2022-07-30T15:34:04;23.50;97.20
46331;DHT22;32049;52.346;4.870;2022-07-30T15:37:10;23.50;97.30
46331;DHT22;32049;52.346;4.870;2022-07-30T15:40:19;23.40;97.40
46331;DHT22;32049;52.346;4.870;2022-07-30T15:43:45;23.40;96.90
46331;DHT22;32049;52.346;4.870;2022-07-30T15:46:52;23.60;96.90
46331;DHT22;32049;52.346;4.870;2022-07-30T15:49:52;23.50;97.10
46331;DHT22;32049;52.346;4.870;2022-07-30T15:53:07;23.40;97.30
46331;DHT22;32049;52.346;4.870;2022-07-30T15:56:17;23.30;97.20
46331;DHT22;32049;52.346;4.870;2022-07-30T15:59:17;23.40;97.40
46331;DHT22;32049;52.346;4.870;2022-07-30T16:02:20;23.40;97.30
46331;DHT22;32049;52.346;4.870;2022-07-30T16:05:21;23.20;97.30
46331;DHT22;32049;52.346;4.870;2022-07-30T16:08:34;23.20;97.90
46331;DHT22;32049;52.346;4.870;2022-07-30T16:11:25;23.20;97.70
46331;DHT22;32049;52.346;4.870;2022-07-30T16:14:29;23.10;98.00
46331;DHT22;32049;52.346;4.870;2022-07-30T16:17:50;23.00;98.30
46331;DHT22;32049;52.346;4.870;2022-07-30T16:20:40;23.10;98.60
46331;DHT22;32049;52.346;4.870;2022-07-30T16:23:57;23.10;98.90
46331;DHT22;32049;52.346;4.870;2022-07-30T16:27:28;23.10;99.10
46331;DHT22;32049;52.346;4.870;2022-07-30T16:30:35;23.00;99.40
46331;DHT22;32049;52.346;4.870;2022-07-30T16:34:01;22.80;99.50
46331;DHT22;32049;52.346;4.870;2022-07-30T16:36:59;23.00;99.50
46331;DHT22;32049;52.346;4.870;2022-07-30T16:39:50;22.80;99.50
46331;DHT22;32049;52.346;4.870;2022-07-30T16:42:48;22.80;99.40
46331;DHT22;32049;52.346;4.870;2022-07-30T16:45:47;22.70;99.60
46331;DHT22;32049;52.346;4.870;2022-07-30T16:48:49;22.70;99.50
46331;DHT22;32049;52.346;4.870;2022-07-30T16:51:56;22.50;99.40
46331;DHT22;32049;52.346;4.870;2022-07-30T16:54:56;22.50;99.70
46331;DHT22;32049;52.346;4.870;2022-07-30T16:57:56;22.50;99.40
46331;DHT22;32049;52.346;4.870;2022-07-30T17:00:52;22.40;99.40
46331;DHT22;32049;52.346;4.870;2022-07-30T17:03:49;22.50;99.90
46331;DHT22;32049;52.346;4.870;2022-07-30T17:06:45;22.60;99.90
46331;DHT22;32049;52.346;4.870;2022-07-30T17:09:40;22.50;99.90
46331;DHT22;32049;52.346;4.870;2022-07-30T17:12:51;22.50;99.90
46331;DHT22;32049;52.346;4.870;2022-07-30T17:15:46;22.60;99.90
46331;DHT22;32049;52.346;4.870;2022-07-30T17:18:37;22.90;99.90
46331;DHT22;32049;52.346;4.870;2022-07-30T17:21:25;23.00;99.60
46331;DHT22;32049;52.346;4.870;2022-07-30T17:24:26;23.00;99.80
46331;DHT22;32049;52.346;4.870;2022-07-30T17:27:16;22.70;99.90
46331;DHT22;32049;52.346;4.870;2022-07-30T17:30:08;22.80;99.90
46331;DHT22;32049;52.346;4.870;2022-07-30T17:33:08;22.80;99.70
46331;DHT22;32049;52.346;4.870;2022-07-30T17:36:08;23.00;99.80
46331;DHT22;32049;52.346;4.870;2022-07-30T17:39:08;22.90;99.70
46331;DHT22;32049;52.346;4.870;2022-07-30T17:42:27;23.00;99.70
46331;DHT22;32049;52.346;4.870;2022-07-30T17:45:32;22.90;99.40
46331;DHT22;32049;52.346;4.870;2022-07-30T17:48:30;22.90;99.60
46331;DHT22;32049;52.346;4.870;2022-07-30T17:51:24;22.80;99.70
46331;DHT22;32049;52.346;4.870;2022-07-30T17:54:15;22.60;99.90
46331;DHT22;32049;52.346;4.870;2022-07-30T17:57:08;22.80;99.90
46331;DHT22;32049;52.346;4.870;2022-07-30T18:00:01;22.80;99.90
46331;DHT22;32049;52.346;4.870;2022-07-30T18:02:52;22.60;99.90
46331;DHT22;32049;52.346;4.870;2022-07-30T18:05:40;22.70;99.90
46331;DHT22;32049;52.346;4.870;2022-07-30T18:08:28;22.50;99.90
46331;DHT22;32049;52.346;4.870;2022-07-30T18:11:19;22.60;99.90
46331;DHT22;32049;52.346;4.870;2022-07-30T18:14:07;22.70;99.90
46331;DHT22;32049;52.346;4.870;2022-07-30T18:16:58;22.50;99.90
46331;DHT22;32049;52.346;4.870;2022-07-30T18:19:52;22.50;99.90
46331;DHT22;32049;52.346;4.870;2022-07-30T18:22:44;22.60;99.90
46331;DHT22;32049;52.346;4.870;2022-07-30T18:25:52;22.60;99.90
46331;DHT22;32049;52.346;4.870;2022-07-30T18:28:40;22.50;99.90
46331;DHT22;32049;52.346;4.870;2022-07-30T18:31:48;22.60;99.90
46331;DHT22;32049;52.346;4.870;2022-07-30T18:34:47;22.60;99.90
46331;DHT22;32049;52.346;4.870;2022-07-30T18:37:38;22.50;99.90
46331;DHT22;32049;52.346;4.870;2022-07-30T18:40:31;22.50;99.90
46331;DHT22;32049;52.346;4.870;2022-07-30T18:43:47;22.40;99.90
46331;DHT22;32049;52.346;4.870;2022-07-30T18:46:40;22.30;99.90
46331;DHT22;32049;52.346;4.870;2022-07-30T18:49:30;22.30;99.90
46331;DHT22;32049;52.346;4.870;2022-07-30T18:52:23;22.20;99.90
46331;DHT22;32049;52.346;4.870;2022-07-30T18:55:27;22.20;99.90
46331;DHT22;32049;52.346;4.870;2022-07-30T18:58:32;22.20;99.90
46331;DHT22;32049;52.346;4.870;2022-07-30T19:01:43;22.20;99.90
46331;DHT22;32049;52.346;4.870;2022-07-30T19:04:36;22.30;99.90
46331;DHT22;32049;52.346;4.870;2022-07-30T19:07:45;22.30;99.90
46331;DHT22;32049;52.346;4.870;2022-07-30T19:10:45;22.30;99.90
46331;DHT22;32049;52.346;4.870;2022-07-30T19:13:38;22.20;99.90
46331;DHT22;32049;52.346;4.870;2022-07-30T19:16:32;22.10;99.90
46331;DHT22;32049;52.346;4.870;2022-07-30T19:19:41;22.30;99.90
46331;DHT22;32049;52.346;4.870;2022-07-30T19:22:34;22.40;99.90
46331;DHT22;32049;52.346;4.870;2022-07-30T19:25:29;22.30;99.90
46331;DHT22;32049;52.346;4.870;2022-07-30T19:28:24;22.10;99.90
46331;DHT22;32049;52.346;4.870;2022-07-30T19:31:14;22.00;99.90
46331;DHT22;32049;52.346;4.870;2022-07-30T19:34:03;21.90;99.90
46331;DHT22;32049;52.346;4.870;2022-07-30T19:37:01;21.90;99.90
46331;DHT22;32049;52.346;4.870;2022-07-30T19:39:54;21.90;99.90
46331;DHT22;32049;52.346;4.870;2022-07-30T19:43:00;22.00;99.90
46331;DHT22;32049;52.346;4.870;2022-07-30T19:46:16;21.90;99.90
46331;DHT22;32049;52.346;4.870;2022-07-30T19:49:15;21.90;99.90
46331;DHT22;32049;52.346;4.870;2022-07-30T19:52:19;21.90;99.90
46331;DHT22;32049;52.346;4.870;2022-07-30T19:55:32;22.00;99.90
46331;DHT22;32049;52.346;4.870;2022-07-30T19:58:56;21.80;99.90
46331;DHT22;32049;52.346;4.870;2022-07-30T20:02:06;21.80;99.90
46331;DHT22;32049;52.346;4.870;2022-07-30T20:04:59;21.70;99.90
46331;DHT22;32049;52.346;4.870;2022-07-30T20:07:56;21.70;99.90
46331;DHT22;32049;52.346;4.870;2022-07-30T20:10:44;21.60;99.90
46331;DHT22;32049;52.346;4.870;2022-07-30T20:13:35;21.60;99.90
46331;DHT22;32049;52.346;4.870;2022-07-30T20:16:36;21.70;99.90
46331;DHT22;32049;52.346;4.870;2022-07-30T20:19:44;21.60;99.90
46331;DHT22;32049;52.346;4.870;2022-07-30T20:22:48;21.60;99.90
46331;DHT22;32049;52.346;4.870;2022-07-30T20:25:46;21.60;99.90
46331;DHT22;32049;52.346;4.870;2022-07-30T20:28:35;21.70;99.90
46331;DHT22;32049;52.346;4.870;2022-07-30T20:31:36;21.60;99.90
46331;DHT22;32049;52.346;4.870;2022-07-30T20:34:30;21.60;99.90
46331;DHT22;32049;52.346;4.870;2022-07-30T20:37:26;21.50;99.90
46331;DHT22;32049;52.346;4.870;2022-07-30T20:40:42;21.50;99.90
46331;DHT22;32049;52.346;4.870;2022-07-30T20:43:44;21.50;99.90
46331;DHT22;32049;52.346;4.870;2022-07-30T20:46:41;21.60;99.90
46331;DHT22;32049;52.346;4.870;2022-07-30T20:49:36;21.50;99.90
46331;DHT22;32049;52.346;4.870;2022-07-30T20:52:25;21.50;99.90
46331;DHT22;32049;52.346;4.870;2022-07-30T20:55:23;21.50;99.90
46331;DHT22;32049;52.346;4.870;2022-07-30T20:58:15;21.50;99.90
46331;DHT22;32049;52.346;4.870;2022-07-30T21:01:06;21.40;99.90
46331;DHT22;32049;52.346;4.870;2022-07-30T21:04:12;21.50;99.90
46331;DHT22;32049;52.346;4.870;2022-07-30T21:07:14;21.40;99.90
46331;DHT22;32049;52.346;4.870;2022-07-30T21:10:12;21.30;99.90
46331;DHT22;32049;52.346;4.870;2022-07-30T21:13:02;21.40;99.90
46331;DHT22;32049;52.346;4.870;2022-07-30T21:15:53;21.40;99.90
46331;DHT22;32049;52.346;4.870;2022-07-30T21:18:49;21.50;99.90
46331;DHT22;32049;52.346;4.870;2022-07-30T21:21:51;21.50;99.90
46331;DHT22;32049;52.346;4.870;2022-07-30T21:24:51;21.40;99.90
46331;DHT22;32049;52.346;4.870;2022-07-30T21:27:46;21.40;99.90
46331;DHT22;32049;52.346;4.870;2022-07-30T21:30:36;21.40;99.90
46331;DHT22;32049;52.346;4.870;2022-07-30T21:33:36;21.30;99.90
46331;DHT22;32049;52.346;4.870;2022-07-30T21:36:27;21.30;99.90
46331;DHT22;32049;52.346;4.870;2022-07-30T21:39:22;21.30;99.90
46331;DHT22;32049;52.346;4.870;2022-07-30T21:42:15;21.30;99.90
46331;DHT22;32049;52.346;4.870;2022-07-30T21:45:29;21.30;99.90
46331;DHT22;32049;52.346;4.870;2022-07-30T21:48:28;21.40;99.90
46331;DHT22;32049;52.346;4.870;2022-07-30T21:51:16;21.30;99.90
46331;DHT22;32049;52.346;4.870;2022-07-30T21:54:18;21.30;99.90
46331;DHT22;32049;52.346;4.870;2022-07-30T21:57:20;21.30;99.90
46331;DHT22;32049;52.346;4.870;2022-07-30T22:00:19;21.20;99.90
46331;DHT22;32049;52.346;4.870;2022-07-30T22:03:21;21.20;99.90
46331;DHT22;32049;52.346;4.870;2022-07-30T22:06:29;21.20;99.90
46331;DHT22;32049;52.346;4.870;2022-07-30T22:09:22;21.10;99.90
46331;DHT22;32049;52.346;4.870;2022-07-30T22:12:21;21.00;99.90
46331;DHT22;32049;52.346;4.870;2022-07-30T22:15:15;21.00;99.90
46331;DHT22;32049;52.346;4.870;2022-07-30T22:18:03;21.00;99.90
46331;DHT22;32049;52.346;4.870;2022-07-30T22:20:53;21.10;99.90
46331;DHT22;32049;52.346;4.870;2022-07-30T22:23:44;21.00;99.90
46331;DHT22;32049;52.346;4.870;2022-07-30T22:26:44;21.00;99.90
46331;DHT22;32049;52.346;4.870;2022-07-30T22:29:37;21.00;99.90
46331;DHT22;32049;52.346;4.870;2022-07-30T22:32:29;20.90;99.90
46331;DHT22;32049;52.346;4.870;2022-07-30T22:35:35;20.90;99.90
46331;DHT22;32049;52.346;4.870;2022-07-30T22:38:27;21.00;99.90
46331;DHT22;32049;52.346;4.870;2022-07-30T22:41:19;20.90;99.90
46331;DHT22;32049;52.346;4.870;2022-07-30T22:44:25;20.90;99.90
46331;DHT22;32049;52.346;4.870;2022-07-30T22:47:22;20.80;99.90
46331;DHT22;32049;52.346;4.870;2022-07-30T22:50:33;20.80;99.90
46331;DHT22;32049;52.346;4.870;2022-07-30T22:53:42;20.80;99.90
46331;DHT22;32049;52.346;4.870;2022-07-30T22:56:58;20.80;99.90
46331;DHT22;32049;52.346;4.870;2022-07-30T23:00:05;20.70;99.90
46331;DHT22;32049;52.346;4.870;2022-07-30T23:03:13;20.70;99.90
46331;DHT22;32049;52.346;4.870;2022-07-30T23:06:05;20.60;99.90
46331;DHT22;32049;52.346;4.870;2022-07-30T23:09:01;20.50;99.90
46331;DHT22;32049;52.346;4.870;2022-07-30T23:12:02;20.50;99.90
46331;DHT22;32049;52.346;4.870;2022-07-30T23:14:52;20.50;99.90
46331;DHT22;32049;52.346;4.870;2022-07-30T23:17:45;20.40;99.90
46331;DHT22;32049;52.346;4.870;2022-07-30T23:20:42;20.40;99.90
46331;DHT22;32049;52.346;4.870;2022-07-30T23:23:31;20.30;99.90
46331;DHT22;32049;52.346;4.870;2022-07-30T23:26:24;20.20;99.90
46331;DHT22;32049;52.346;4.870;2022-07-30T23:29:14;20.20;99.90
46331;DHT22;32049;52.346;4.870;2022-07-30T23:32:06;20.20;99.90
46331;DHT22;32049;52.346;4.870;2022-07-30T23:34:53;20.30;99.90
46331;DHT22;32049;52.346;4.870;2022-07-30T23:37:42;20.30;99.90
46331;DHT22;32049;52.346;4.870;2022-07-30T23:40:36;20.20;99.90
